Allen, KS

6:23 AM CDT on July 25, 2014 (GMT -0500)
Timmerman School Area (KKSEMPOR4) Elev 1214 ft | 38.43 °N, 96.22 °W | Change Station
Active Advisory: Heat Advisory

Current weather conditions updated 8 minutes ago

Clear
Clear
77.0 °F
Feels Like 79 °F
N
5.6
Wind Variable Wind from South
Gusts 7.4 mph

Today is forecast to be Much Warmer than yesterday.

Today
High -- | Low -- °F
--% Chance of Precip.
Yesterday
High -- | Low -- °F
Precip. -- in
6:20 AM 8:41 PM
Waning Crescent, 2% visible
Pressure 29.85 in
Visibility 10.0 miles
Clouds Clear
Heat Index 79 °F
Dew Point 71 °F
Humidity 81%
Rainfall 0.00 in
Snow Depth Not available.
UV 0 out of 12
Pollen 5.70 out of 12
Air Quality Not available.
Flu Activity Not available.
METAR KEMP 251053Z AUTO 20014G21KT 10SM CLR 24/21 A2988 RMK AO2 SLP108 T02390206

More Conditions Fewer Conditions

Pressure 29.85 in
Visibility 10.0 miles
Clouds Clear
Heat Index 79 °F
Dew Point 71 °F
Humidity 81%
Rainfall 0.00 in
Snow Depth Not available.
UV 0 out of 12
Pollen 5.70 out of 12
Air Quality Not available.
Flu Activity Not available.
METAR KEMP 251053Z AUTO 20014G21KT 10SM CLR 24/21 A2988 RMK AO2 SLP108 T02390206

More Conditions Fewer Conditions

10-Day Weather Forecast

Almanac

Astronomy

Jul. 25, 2014 Rise Set
Actual Time 6:20 AM CDT 8:41 PM CDT
Civil Twilight 5:50 AM CDT 9:12 PM CDT
Nautical Twilight 5:13 AM CDT 9:49 PM CDT
Astronomical Twilight 4:32 AM CDT 10:29 PM CDT
Moon 5:20 AM CDT 7:40 PM CDT
Length of Visible Light 15h 21m
Length of Day
14h 21m
Tomorrow will be 1m 41s shorter.
Waning Crescent, 2% of the Moon is Illuminated
Today
Waning Crescent
Jul 26
New
Aug 3
First Quarter
Aug 10
Full
Aug 17
Last Quarter

Today's Extremes

State Highs State Lows

Community

WunderPhotos

Upload Photos

1,737,289 photos uploaded!

Nearby

Snow Depth

Station Depth Elevation
No new snow has been reported.

Earthquake Activity

City Distance Mag. Time & Date
Harper, Kansas 134 miles 3.3 7:24 AM CDT
2014-07-20
Harper, Kansas 134 miles 3.0 7:24 PM CDT
2014-07-19
Helena, Oklahoma 171 miles 3.2 8:41 AM CDT
2014-07-18
Minimum magnitude displayed is 2.5.

Coastal Water Temperatures

Place Temperature
No Stations Reporting

Nearby Weather Stations

Station Location Temp. Heat Index Dew Point Humidity Wind Precip. Elev Updated Type
Timmerman School Area, Emporia, KS 77.0 °F 79 °F 71 °F 81% South  at  5.6 mph 0.00 in / hr 1214 ft 6:14 AM CDT Rapid Fire
East Emporia Kansas, Emporia, KS 74.7 °F 75 °F 68 °F 81% South  at  8.3 mph - / hr 1106 ft 6:18 AM CDT Normal
RAWS TALLGRASS PRAIRIE KS, Strong City, KS 76 °F 77 °F 69 °F 80% SSW  at  16 mph 0.00 in / hr 1230 ft 5:30 AM CDT MADIS
MesoWest VOLLND , Alma, KS 78 °F 76 °F - - North  at  - 0.00 in / hr 1110 ft 4:55 AM CDT MADIS
MesoWest DWIGHT , Dwight, KS 70 °F - - - North  at  - 0.00 in / hr 1443 ft 4:55 AM CDT MADIS
Skydive Kansas, Osage City, KS 75.7 °F 78 °F 64 °F 67% SE  at  8.1 mph 0.00 in / hr 1089 ft 7:22 AM EDT Rapid Fire

Show More Stations Show Fewer Stations